Time;durP1;ratioP1;P1;durP2;ratioP2;P2;SDS_P1;SDS_P2;PMS_P1;PMS_P2;Temp;Humidity;BMP_temperature;BMP_pressure;BME280_temperature;BME280_humidity;BME280_pressure;Samples;Min_cycle;Max_cycle;Signal;HPM_P1;HPM_P2
2022/08/22 00:01:56;;;;;;;14.70;2.75;;;20.90;99.90;;;;;;4914026;29;20099;-87
2022/08/22 00:04:55;;;;;;;14.30;2.50;;;20.90;99.90;;;;;;4871800;29;20040;-88
2022/08/22 00:07:29;;;;;;;11.40;2.95;;;20.90;99.90;;;;;;4896684;29;20040;-87
2022/08/22 00:10:11;;;;;;;11.83;3.13;;;21.00;99.90;;;;;;4913847;29;20020;-87
2022/08/22 00:12:53;;;;;;;11.57;3.58;;;20.90;99.90;;;;;;4914243;29;20291;-87
2022/08/22 00:15:30;;;;;;;18.35;3.72;;;20.90;99.90;;;;;;4914160;29;20028;-87
2022/08/22 00:18:16;;;;;;;14.15;3.13;;;20.90;99.90;;;;;;4913828;29;20017;-87
2022/08/22 00:21:08;;;;;;;14.80;3.55;;;20.80;99.90;;;;;;4912394;29;20401;-87
2022/08/22 00:23:42;;;;;;;15.63;3.53;;;20.80;99.90;;;;;;4913797;29;20618;-87
2022/08/22 00:26:20;;;;;;;13.20;3.35;;;20.80;99.90;;;;;;4913908;29;20115;-88
2022/08/22 00:28:55;;;;;;;16.70;3.53;;;20.70;99.90;;;;;;4913436;29;20485;-88
2022/08/22 00:31:20;;;;;;;;;;;20.60;99.90;;;;;;4897097;29;20579;-87
2022/08/22 00:34:01;;;;;;;18.77;5.05;;;20.60;99.90;;;;;;4913547;29;19919;-87
2022/08/22 00:37:01;;;;;;;15.40;4.78;;;20.40;99.90;;;;;;4914088;29;20028;-87
2022/08/22 00:39:41;;;;;;;20.00;5.40;;;20.30;99.90;;;;;;4913482;29;20028;-88
2022/08/22 00:42:30;;;;;;;18.33;4.95;;;20.20;99.90;;;;;;4913588;29;20024;-86
2022/08/22 00:45:15;;;;;;;16.80;4.57;;;20.10;99.90;;;;;;4913584;29;20016;-87
2022/08/22 00:47:48;;;;;;;;;;;20.20;99.90;;;;;;4913872;29;20446;-87
2022/08/22 00:50:23;;;;;;;14.55;3.67;;;20.20;99.90;;;;;;4913942;29;20404;-87
2022/08/22 00:52:59;;;;;;;10.65;2.83;;;20.20;99.90;;;;;;4913511;29;20031;-87
2022/08/22 00:55:30;;;;;;;13.77;3.03;;;20.20;99.90;;;;;;4887344;29;20059;-87
2022/08/22 00:58:05;;;;;;;10.63;3.28;;;20.20;99.90;;;;;;4911063;29;20020;-88
2022/08/22 01:00:38;;;;;;;12.93;2.67;;;20.10;99.90;;;;;;4889244;29;20232;-87
2022/08/22 01:03:21;;;;;;;8.90;2.75;;;20.20;99.90;;;;;;4921141;29;20024;-86
2022/08/22 01:06:13;;;;;;;15.23;2.97;;;20.00;99.90;;;;;;4924250;29;20083;-86
2022/08/22 01:08:57;;;;;;;11.25;2.90;;;20.00;99.90;;;;;;4914206;29;20043;-87
2022/08/22 01:11:29;;;;;;;8.70;2.45;;;20.10;99.90;;;;;;4927884;29;20024;-87
2022/08/22 01:14:17;;;;;;;7.68;2.35;;;20.10;99.90;;;;;;4927937;29;20036;-87
2022/08/22 01:16:59;;;;;;;7.18;2.03;;;20.10;99.90;;;;;;4927830;29;20300;-87
2022/08/22 01:19:59;;;;;;;6.18;2.00;;;20.10;99.90;;;;;;4916546;29;20061;-87
2022/08/22 01:22:45;;;;;;;12.10;2.25;;;20.10;99.90;;;;;;4928248;29;20296;-87
2022/08/22 01:25:20;;;;;;;10.65;3.08;;;20.10;99.90;;;;;;4898370;29;20017;-87
2022/08/22 01:28:33;;;;;;;5.45;2.08;;;20.10;99.90;;;;;;4924647;29;20087;-87
2022/08/22 01:31:27;;;;;;;7.97;2.30;;;20.10;99.90;;;;;;4910836;29;20012;-87
2022/08/22 01:34:30;;;;;;;5.13;2.15;;;20.20;99.90;;;;;;4927635;29;20020;-87
2022/08/22 01:37:26;;;;;;;8.10;2.40;;;20.20;99.90;;;;;;4927228;29;20024;-87
2022/08/22 01:40:11;;;;;;;8.50;2.60;;;20.10;99.90;;;;;;4926345;29;20027;-88
2022/08/22 01:42:45;;;;;;;6.07;2.75;;;20.10;99.90;;;;;;4917628;29;20051;-87
2022/08/22 01:45:13;;;;;;;5.75;2.40;;;20.00;99.90;;;;;;4931590;29;20027;-86
2022/08/22 01:47:48;;;;;;;6.63;2.60;;;20.00;99.90;;;;;;4928963;29;20063;-86
2022/08/22 01:50:36;;;;;;;6.43;3.17;;;20.10;99.90;;;;;;4898541;29;20112;-87
2022/08/22 01:53:17;;;;;;;5.43;3.00;;;20.00;99.90;;;;;;4906265;29;20084;-87
2022/08/22 01:55:55;;;;;;;7.25;3.53;;;20.00;99.90;;;;;;4920128;29;20052;-87
2022/08/22 01:58:29;;;;;;;6.55;3.40;;;20.00;99.90;;;;;;4927603;29;20059;-86
2022/08/22 02:01:22;;;;;;;7.90;4.07;;;19.90;99.90;;;;;;4927070;29;20032;-87
2022/08/22 02:04:23;;;;;;;6.55;3.83;;;19.90;99.90;;;;;;4922090;29;20038;-86
2022/08/22 02:07:03;;;;;;;7.65;4.40;;;19.90;99.90;;;;;;4916027;29;20091;-87
2022/08/22 02:09:39;;;;;;;7.45;5.03;;;19.90;99.90;;;;;;4916021;29;20119;-88
2022/08/22 02:12:29;;;;;;;6.97;5.10;;;19.90;99.90;;;;;;4916212;29;20034;-87
2022/08/22 02:15:13;;;;;;;10.07;5.85;;;19.90;99.90;;;;;;4916024;29;20520;-87
2022/08/22 02:17:53;;;;;;;9.52;5.65;;;19.90;99.90;;;;;;4915909;29;20405;-87
2022/08/22 02:20:42;;;;;;;6.85;4.30;;;19.90;99.90;;;;;;4915878;29;20116;-87
2022/08/22 02:23:26;;;;;;;10.07;4.32;;;19.90;99.90;;;;;;4915908;29;20029;-87
2022/08/22 02:26:01;;;;;;;4.85;3.30;;;19.90;99.90;;;;;;4894264;29;20024;-87
2022/08/22 02:28:33;;;;;;;9.90;3.20;;;19.90;99.90;;;;;;4891279;29;20071;-88
2022/08/22 02:31:12;;;;;;;8.65;2.65;;;19.90;99.90;;;;;;4915639;29;20107;-86
2022/08/22 02:33:49;;;;;;;4.70;2.55;;;19.90;99.90;;;;;;4898827;29;20085;-87
2022/08/22 02:36:27;;;;;;;7.57;2.40;;;19.80;99.90;;;;;;4915718;29;20051;-86
2022/08/22 02:38:57;;;;;;;5.72;2.42;;;19.80;99.90;;;;;;4915384;29;20032;-87
2022/08/22 02:42:00;;;;;;;4.78;2.35;;;19.80;99.90;;;;;;4915946;29;20028;-87
2022/08/22 02:44:35;;;;;;;7.60;2.25;;;19.80;99.90;;;;;;4881824;29;20506;-87
2022/08/22 02:47:22;;;;;;;5.25;2.72;;;19.90;99.90;;;;;;4895240;29;20483;-87
2022/08/22 02:50:01;;;;;;;4.85;2.25;;;19.80;99.90;;;;;;4902327;29;20031;-88
2022/08/22 02:52:53;;;;;;;3.97;2.17;;;19.80;99.90;;;;;;4915346;29;20028;-87
2022/08/22 02:55:41;;;;;;;5.43;2.35;;;19.90;99.90;;;;;;4904879;29;20118;-86
2022/08/22 02:58:50;;;;;;;8.63;2.58;;;19.90;99.90;;;;;;4914347;29;20492;-86
2022/08/22 03:01:31;;;;;;;6.38;2.00;;;19.90;99.90;;;;;;4899151;29;20099;-87
2022/08/22 03:04:21;;;;;;;8.60;2.25;;;19.90;99.90;;;;;;4916263;29;20024;-88
2022/08/22 03:07:11;;;;;;;7.47;2.20;;;19.90;99.90;;;;;;4916181;29;20082;-87
2022/08/22 03:09:46;;;;;;;5.35;1.90;;;19.90;99.90;;;;;;4904895;29;20123;-87
2022/08/22 03:12:44;;;;;;;5.75;1.73;;;19.90;99.90;;;;;;4915605;29;20032;-87
2022/08/22 03:15:22;;;;;;;4.65;1.77;;;19.90;99.90;;;;;;4938270;29;20043;-87
2022/08/22 03:18:13;;;;;;;4.03;2.00;;;19.90;99.90;;;;;;4938406;29;20017;-86
2022/08/22 03:21:10;;;;;;;3.88;1.60;;;19.90;99.90;;;;;;4932448;29;20032;-87
2022/08/22 03:23:41;;;;;;;3.42;1.77;;;19.90;99.90;;;;;;4937521;29;20057;-87
2022/08/22 03:26:28;;;;;;;4.03;1.98;;;19.80;99.90;;;;;;4937137;29;20111;-88
2022/08/22 03:29:08;;;;;;;4.95;1.80;;;19.80;99.90;;;;;;4919204;29;20032;-87
2022/08/22 03:31:35;;;;;;;8.00;1.95;;;19.90;99.90;;;;;;4929584;29;20012;-87
2022/08/22 03:34:21;;;;;;;4.68;2.03;;;19.90;99.90;;;;;;4918047;29;20133;-87
2022/08/22 03:37:22;;;;;;;7.07;1.83;;;19.90;99.90;;;;;;4935534;29;20047;-87
2022/08/22 03:39:56;;;;;;;5.35;2.08;;;20.00;99.90;;;;;;4916765;29;20036;-87
2022/08/22 03:42:25;;;;;;;;;;;20.00;99.90;;;;;;4922156;29;20032;-87
2022/08/22 03:45:12;;;;;;;2.67;1.50;;;20.00;99.90;;;;;;4898493;29;19907;-88
2022/08/22 03:48:09;;;;;;;6.50;1.80;;;20.10;99.90;;;;;;4918612;29;20036;-87
2022/08/22 03:51:02;;;;;;;3.50;1.80;;;20.10;99.90;;;;;;4915463;29;20028;-87
2022/08/22 03:53:52;;;;;;;4.30;2.58;;;20.10;99.90;;;;;;4917273;29;20112;-87
2022/08/22 03:56:27;;;;;;;5.03;2.03;;;20.10;99.90;;;;;;4914434;29;20016;-87
2022/08/22 03:59:09;;;;;;;;;;;20.10;99.90;;;;;;4914992;29;20107;-88
2022/08/22 04:02:09;;;;;;;4.22;2.25;;;20.10;99.90;;;;;;4913929;29;20003;-88
2022/08/22 04:04:59;;;;;;;4.80;1.77;;;20.20;99.90;;;;;;4914266;29;20048;-87
2022/08/22 04:07:42;;;;;;;4.90;2.22;;;20.20;99.90;;;;;;4914492;29;20094;-88
2022/08/22 04:10:29;;;;;;;6.57;2.13;;;20.20;99.90;;;;;;4914284;29;20063;-87
2022/08/22 04:13:14;;;;;;;6.68;2.03;;;20.20;99.90;;;;;;4884314;29;20383;-87
2022/08/22 04:16:04;;;;;;;2.95;1.88;;;20.20;99.90;;;;;;4914246;29;20036;-88
2022/08/22 04:18:33;;;;;;;3.70;1.85;;;20.20;99.90;;;;;;4915703;29;20028;-87
2022/08/22 04:21:15;;;;;;;5.22;2.17;;;20.20;99.90;;;;;;4924101;29;20380;-87
2022/08/22 04:24:17;;;;;;;5.22;2.00;;;20.20;99.90;;;;;;4924265;29;20304;-87
2022/08/22 04:26:57;;;;;;;5.95;1.70;;;20.20;99.90;;;;;;4919510;29;20020;-87
2022/08/22 04:29:41;;;;;;;5.75;2.70;;;20.20;99.90;;;;;;4925255;29;20027;-87
2022/08/22 04:32:36;;;;;;;4.47;1.83;;;20.20;99.90;;;;;;4924766;29;20348;-87
2022/08/22 04:35:10;;;;;;;5.90;1.55;;;20.20;99.90;;;;;;4924673;29;20070;-88
2022/08/22 04:37:50;;;;;;;5.17;2.50;;;20.10;99.90;;;;;;4924567;29;20012;-88
2022/08/22 04:40:36;;;;;;;5.57;3.25;;;20.10;99.90;;;;;;4924699;29;20260;-87
2022/08/22 04:43:23;;;;;;;11.35;4.70;;;20.20;99.90;;;;;;4911031;29;20056;-87
2022/08/22 04:46:10;;;;;;;14.80;6.68;;;20.10;99.90;;;;;;4925171;29;20024;-88
2022/08/22 04:48:53;;;;;;;10.75;7.15;;;20.20;99.90;;;;;;4924568;29;20040;-87
2022/08/22 04:51:32;;;;;;;14.55;8.90;;;20.20;99.90;;;;;;4910746;29;20028;-87
2022/08/22 04:54:35;;;;;;;15.77;9.45;;;20.20;99.90;;;;;;4925718;29;20024;-88
2022/08/22 04:57:23;;;;;;;12.23;10.05;;;20.20;99.90;;;;;;4922306;29;20528;-89
2022/08/22 04:59:49;;;;;;;13.20;8.88;;;20.20;99.90;;;;;;4927008;29;20031;-87
2022/08/22 05:02:25;;;;;;;11.68;7.95;;;20.20;99.90;;;;;;4919123;29;20032;-88
2022/08/22 05:05:02;;;;;;;10.77;7.50;;;20.10;99.90;;;;;;4919763;29;20036;-88
2022/08/22 05:07:34;;;;;;;10.02;7.35;;;20.10;99.90;;;;;;4911727;29;20032;-88
2022/08/22 05:10:11;;;;;;;8.80;6.72;;;20.10;99.90;;;;;;4928181;29;20193;-88
2022/08/22 05:12:42;;;;;;;9.15;6.32;;;20.20;99.90;;;;;;4927989;29;20056;-89
2022/08/22 05:15:26;;;;;;;11.60;7.30;;;20.10;99.90;;;;;;4927984;29;20355;-89
2022/08/22 05:17:56;;;;;;;10.15;5.60;;;20.20;99.90;;;;;;4915647;29;20039;-89
2022/08/22 05:20:24;;;;;;;8.23;5.95;;;20.20;99.90;;;;;;4927426;29;20028;-88
2022/08/22 05:22:55;;;;;;;7.47;4.65;;;20.20;99.90;;;;;;4910171;29;20277;-89
2022/08/22 05:25:26;;;;;;;4.40;3.03;;;20.30;99.90;;;;;;4927641;29;20036;-89
2022/08/22 05:28:03;;;;;;;4.57;3.00;;;20.20;99.90;;;;;;4926767;29;20432;-88
2022/08/22 05:30:32;;;;;;;7.35;2.03;;;20.20;99.90;;;;;;4926996;29;20027;-88
2022/08/22 05:33:25;;;;;;;5.85;1.67;;;20.20;99.90;;;;;;4927092;29;20036;-88
2022/08/22 05:36:10;;;;;;;5.95;1.75;;;20.20;99.90;;;;;;4923088;29;20040;-88
2022/08/22 05:38:47;;;;;;;6.25;1.83;;;20.10;99.90;;;;;;4927017;29;20252;-87
2022/08/22 05:41:26;;;;;;;3.05;1.45;;;20.10;99.90;;;;;;4921296;29;20497;-88
2022/08/22 05:43:53;;;;;;;6.50;1.92;;;20.10;99.90;;;;;;4917279;29;20024;-88
2022/08/22 05:46:21;;;;;;;3.20;1.63;;;20.00;99.90;;;;;;4917088;29;20051;-88
2022/08/22 05:48:55;;;;;;;4.03;1.83;;;20.10;99.90;;;;;;4916989;29;20544;-88
2022/08/22 05:51:35;;;;;;;3.45;1.77;;;20.10;99.90;;;;;;4916728;29;20481;-88
2022/08/22 05:54:15;;;;;;;6.15;1.42;;;20.10;99.90;;;;;;4896223;29;20048;-88
2022/08/22 05:56:45;;;;;;;1.77;1.20;;;20.10;99.90;;;;;;4902740;29;20020;-88
2022/08/22 05:59:24;;;;;;;2.83;1.50;;;20.10;99.90;;;;;;4887715;29;20028;-88
2022/08/22 06:02:02;;;;;;;3.05;1.73;;;20.10;99.90;;;;;;4916646;29;20024;-88
2022/08/22 06:04:42;;;;;;;5.70;1.30;;;20.10;99.90;;;;;;4916461;29;20608;-88
2022/08/22 06:07:17;;;;;;;3.20;1.30;;;20.20;99.90;;;;;;4891253;29;20405;-88
2022/08/22 06:09:45;;;;;;;3.47;1.10;;;20.20;99.90;;;;;;4895007;29;20031;-88
2022/08/22 06:12:25;;;;;;;2.30;1.30;;;20.20;99.90;;;;;;4916565;29;20160;-88
2022/08/22 06:15:03;;;;;;;2.10;1.20;;;20.30;99.90;;;;;;4916227;29;20096;-88
2022/08/22 06:17:41;;;;;;;2.08;1.35;;;20.30;99.90;;;;;;4916706;29;20052;-87
2022/08/22 06:20:09;;;;;;;3.95;1.50;;;20.30;99.90;;;;;;4916267;29;20028;-88
2022/08/22 06:22:51;;;;;;;2.65;1.15;;;20.30;99.90;;;;;;4916294;29;20056;-88
2022/08/22 06:25:22;;;;;;;2.30;1.30;;;20.40;99.90;;;;;;4915927;29;20024;-87
2022/08/22 06:27:49;;;;;;;3.05;1.25;;;20.40;99.90;;;;;;4916093;29;20032;-89
2022/08/22 06:30:17;;;;;;;1.85;1.02;;;20.40;99.90;;;;;;4916043;29;20237;-88
2022/08/22 06:32:49;;;;;;;3.28;1.20;;;20.50;99.90;;;;;;4915937;29;20063;-88
2022/08/22 06:35:27;;;;;;;1.80;1.30;;;20.40;99.90;;;;;;4887596;29;20029;-88
2022/08/22 06:37:58;;;;;;;2.38;1.33;;;20.50;99.90;;;;;;4915689;29;20024;-88
2022/08/22 06:40:26;;;;;;;1.70;1.05;;;20.50;99.90;;;;;;4915912;29;20024;-88
2022/08/22 06:42:53;;;;;;;0.93;0.82;;;20.50;99.90;;;;;;4915503;29;20028;-88
2022/08/22 06:45:31;;;;;;;2.35;1.20;;;20.50;99.90;;;;;;4916080;29;20031;-88
2022/08/22 06:48:19;;;;;;;1.33;1.00;;;20.40;99.90;;;;;;4915536;29;20036;-88
2022/08/22 06:50:55;;;;;;;1.10;0.65;;;20.50;99.90;;;;;;4914802;29;20481;-88
2022/08/22 06:53:26;;;;;;;2.20;0.60;;;20.50;99.90;;;;;;4898460;29;20035;-88
2022/08/22 06:55:55;;;;;;;1.23;0.80;;;20.50;99.90;;;;;;4898313;29;20035;-88
2022/08/22 06:58:36;;;;;;;1.15;0.80;;;20.60;99.90;;;;;;4916061;29;20032;-89
2022/08/22 07:01:07;;;;;;;3.42;1.05;;;20.60;99.90;;;;;;4915299;29;20039;-88
2022/08/22 07:03:37;;;;;;;2.28;1.00;;;20.70;99.90;;;;;;4891899;29;20397;-88
2022/08/22 07:06:03;;;;;;;2.58;1.10;;;20.70;99.90;;;;;;4909653;29;20052;-88
2022/08/22 07:08:32;;;;;;;2.30;1.00;;;20.70;99.90;;;;;;4914966;29;20036;-88
2022/08/22 07:11:17;;;;;;;1.98;0.98;;;20.80;99.90;;;;;;4915316;29;20031;-88
2022/08/22 07:13:53;;;;;;;2.97;0.82;;;20.90;99.90;;;;;;4898313;29;20485;-88
2022/08/22 07:16:29;;;;;;;1.85;0.60;;;20.90;99.90;;;;;;4885255;29;20025;-88
2022/08/22 07:18:56;;;;;;;1.02;0.57;;;21.00;99.90;;;;;;4915337;29;20020;-89
2022/08/22 07:21:45;;;;;;;1.75;0.60;;;21.10;99.90;;;;;;4915167;29;20036;-88
2022/08/22 07:24:15;;;;;;;1.65;0.70;;;21.20;99.90;;;;;;4915124;29;20032;-88
2022/08/22 07:27:07;;;;;;;1.85;0.68;;;21.20;99.90;;;;;;4915157;29;20111;-88
2022/08/22 07:29:53;;;;;;;2.30;0.80;;;21.30;99.90;;;;;;4891340;29;20469;-88
2022/08/22 07:32:46;;;;;;;2.65;0.70;;;21.30;99.90;;;;;;4911537;29;20076;-88
2022/08/22 07:35:17;;;;;;;1.75;0.77;;;21.30;99.90;;;;;;4914894;29;20039;-88
2022/08/22 07:37:49;;;;;;;1.42;0.60;;;21.40;99.90;;;;;;4914813;29;20099;-88
2022/08/22 07:40:23;;;;;;;1.60;0.80;;;21.40;99.90;;;;;;4914831;29;20056;-88
2022/08/22 07:43:09;;;;;;;2.80;0.90;;;21.40;99.90;;;;;;4915019;29;20024;-88
2022/08/22 07:46:26;;;;;;;1.27;0.77;;;21.40;99.90;;;;;;4915288;29;20519;-88
2022/08/22 07:49:07;;;;;;;2.97;0.90;;;21.50;99.90;;;;;;4837875;29;20033;-88
2022/08/22 07:51:41;;;;;;;3.15;1.25;;;21.60;99.90;;;;;;4838298;29;20037;-88
2022/08/22 07:54:08;;;;;;;;;;;21.60;99.90;;;;;;4875979;29;20047;-87
2022/08/22 07:57:00;;;;;;;2.00;1.10;;;21.70;99.90;;;;;;4914882;29;19915;-87
2022/08/22 07:59:27;;;;;;;2.40;0.90;;;21.70;99.90;;;;;;4906104;29;20509;-87
2022/08/22 08:01:57;;;;;;;4.32;1.15;;;21.70;99.90;;;;;;4914683;29;20035;-88
2022/08/22 08:04:28;;;;;;;2.60;1.13;;;21.70;99.90;;;;;;4914569;29;20047;-89
2022/08/22 08:06:57;;;;;;;2.80;1.17;;;21.80;99.90;;;;;;4914652;29;20141;-88
2022/08/22 08:09:26;;;;;;;3.33;1.05;;;21.90;99.90;;;;;;4914237;29;20024;-89
2022/08/22 08:11:53;;;;;;;3.97;1.40;;;21.70;99.90;;;;;;4914697;29;20016;-88
2022/08/22 08:14:21;;;;;;;4.32;1.40;;;21.60;99.90;;;;;;4914120;29;20100;-87
2022/08/22 08:16:54;;;;;;;3.92;1.00;;;21.70;99.90;;;;;;4897107;29;20447;-88
2022/08/22 08:19:20;;;;;;;7.20;1.03;;;21.80;99.90;;;;;;4915541;29;20020;-88
2022/08/22 08:21:53;;;;;;;3.47;1.20;;;21.70;99.90;;;;;;4898080;29;20284;-88
2022/08/22 08:24:25;;;;;;;3.95;1.45;;;21.90;99.90;;;;;;4905524;29;20030;-88
2022/08/22 08:29:53;;;;;;;2.28;1.30;;;21.80;99.90;;;;;;4918599;29;20039;-88
2022/08/22 08:32:21;;;;;;;4.05;1.42;;;21.80;99.90;;;;;;4912778;29;20400;-87
2022/08/22 08:34:47;;;;;;;4.32;1.35;;;21.80;99.90;;;;;;4918071;29;20755;-87
2022/08/22 08:37:28;;;;;;;3.42;1.40;;;21.90;99.90;;;;;;4887503;29;20314;-88
2022/08/22 08:39:57;;;;;;;3.75;1.17;;;22.00;99.90;;;;;;4918112;29;20020;-87
2022/08/22 08:46:02;;;;;;;2.00;0.52;;;21.80;99.90;;;;;;4918243;29;20468;-88
2022/08/22 08:48:56;;;;;;;4.43;0.70;;;21.80;99.90;;;;;;4917784;29;20493;-88
2022/08/22 08:51:37;;;;;;;2.85;0.60;;;21.80;99.90;;;;;;4917696;29;20028;-88
2022/08/22 08:54:34;;;;;;;2.33;0.50;;;21.90;99.90;;;;;;4888320;29;20561;-87
2022/08/22 08:57:10;;;;;;;3.50;0.95;;;22.00;99.90;;;;;;4907447;29;20160;-87
2022/08/22 08:59:59;;;;;;;2.92;0.47;;;22.20;99.90;;;;;;4917483;29;20575;-87
2022/08/22 09:02:44;;;;;;;1.98;0.82;;;22.20;99.90;;;;;;4917850;29;20028;-87
2022/08/22 09:05:33;;;;;;;1.58;0.57;;;22.20;99.90;;;;;;4904989;29;20040;-87
2022/08/22 09:08:17;;;;;;;1.83;0.50;;;22.40;99.90;;;;;;4917234;29;20103;-88
2022/08/22 09:11:20;;;;;;;1.45;0.85;;;22.40;99.90;;;;;;4900824;29;20135;-88
2022/08/22 09:14:00;;;;;;;2.03;0.75;;;22.20;99.90;;;;;;4900284;29;20036;-87
2022/08/22 09:16:49;;;;;;;1.77;0.70;;;22.30;99.90;;;;;;4917147;29;20189;-88
2022/08/22 09:19:22;;;;;;;3.35;0.50;;;22.50;99.90;;;;;;4904535;29;20520;-88
2022/08/22 09:21:53;;;;;;;2.58;0.43;;;22.50;99.90;;;;;;4917240;29;20032;-87
2022/08/22 09:24:56;;;;;;;3.10;0.60;;;22.30;99.90;;;;;;4904097;29;20024;-88
2022/08/22 09:27:36;;;;;;;2.10;0.55;;;22.40;99.90;;;;;;4917382;29;20024;-88
2022/08/22 09:30:08;;;;;;;3.08;0.85;;;22.60;99.90;;;;;;4900155;29;20028;-88
2022/08/22 09:32:53;;;;;;;4.25;1.13;;;22.70;99.90;;;;;;4916892;29;20024;-88
2022/08/22 09:35:37;;;;;;;2.47;0.63;;;22.70;99.90;;;;;;4917000;29;20027;-87
2022/08/22 09:38:43;;;;;;;3.60;0.65;;;22.50;99.90;;;;;;4903497;29;20378;-87
2022/08/22 09:41:24;;;;;;;1.75;0.73;;;22.30;99.90;;;;;;4916667;29;20107;-88
2022/08/22 09:44:28;;;;;;;2.70;0.50;;;22.40;99.90;;;;;;4916686;29;20036;-87
2022/08/22 09:47:05;;;;;;;2.30;0.80;;;22.50;99.90;;;;;;4886448;29;20040;-88
2022/08/22 09:49:49;;;;;;;2.63;0.47;;;22.70;99.90;;;;;;4916459;29;20035;-88
2022/08/22 09:52:26;;;;;;;3.35;0.63;;;23.00;99.90;;;;;;4899329;29;20589;-88
2022/08/22 09:55:08;;;;;;;1.83;0.50;;;23.10;99.90;;;;;;4916459;29;20032;-87
2022/08/22 09:57:50;;;;;;;2.20;0.40;;;23.20;99.90;;;;;;4916513;29;20047;-87
2022/08/22 10:00:22;;;;;;;1.20;0.60;;;23.20;99.90;;;;;;4916813;29;20271;-88
2022/08/22 10:03:03;;;;;;;2.45;0.40;;;23.10;99.90;;;;;;4886456;29;20029;-89
2022/08/22 10:05:37;;;;;;;2.85;0.50;;;22.90;99.90;;;;;;4916135;29;20052;-89
2022/08/22 10:08:11;;;;;;;3.28;0.60;;;22.70;99.90;;;;;;4885678;29;20505;-89
2022/08/22 10:10:59;;;;;;;3.50;0.93;;;22.60;99.90;;;;;;4916204;29;20020;-88
2022/08/22 10:13:43;;;;;;;4.65;0.75;;;22.70;99.90;;;;;;4898717;29;20083;-88
2022/08/22 10:16:18;;;;;;;3.08;0.90;;;22.80;99.90;;;;;;4916079;29;20055;-88
2022/08/22 10:19:07;;;;;;;2.08;0.52;;;23.00;99.90;;;;;;4916383;29;20076;-88
2022/08/22 10:21:56;;;;;;;5.97;0.90;;;23.40;99.90;;;;;;4916365;29;20159;-89
2022/08/22 10:24:30;;;;;;;3.42;0.60;;;23.50;99.90;;;;;;4922960;29;20027;-88
2022/08/22 10:27:04;;;;;;;1.97;0.73;;;23.60;99.90;;;;;;4922282;29;20036;-88
2022/08/22 10:29:33;;;;;;;4.82;0.60;;;23.50;99.90;;;;;;4917681;29;20182;-88
2022/08/22 10:32:21;;;;;;;1.02;0.22;;;23.50;99.90;;;;;;4920377;29;20032;-88
2022/08/22 10:34:52;;;;;;;2.30;0.30;;;23.50;99.90;;;;;;4916204;29;20520;-88
2022/08/22 10:37:47;;;;;;;1.58;0.35;;;23.50;99.90;;;;;;4916095;29;20016;-89
2022/08/22 10:40:21;;;;;;;;;;;23.70;99.90;;;;;;4916684;29;20024;-88
2022/08/22 10:43:16;;;;;;;1.00;0.50;;;23.70;99.90;;;;;;4915371;29;20391;-87
2022/08/22 10:45:44;;;;;;;;;;;23.80;99.90;;;;;;4918344;29;20115;-88
2022/08/22 10:48:09;;;;;;;1.23;0.40;;;23.80;99.90;;;;;;4923618;29;20021;-88
2022/08/22 10:51:02;;;;;;;0.28;0.20;;;23.80;99.90;;;;;;4915799;29;20156;-88
2022/08/22 10:53:50;;;;;;;1.50;0.40;;;23.60;99.90;;;;;;4904806;29;20036;-87
2022/08/22 10:56:36;;;;;;;0.60;0.30;;;23.40;99.90;;;;;;4898738;29;20056;-86
2022/08/22 10:59:21;;;;;;;1.00;0.20;;;23.30;99.90;;;;;;4916007;29;20070;-86
2022/08/22 11:02:05;;;;;;;;;;;23.60;99.90;;;;;;4916117;29;20388;-86
2022/08/22 11:05:04;;;;;;;1.58;0.30;;;24.20;99.90;;;;;;4915503;29;19919;-86
2022/08/22 11:07:53;;;;;;;2.22;0.40;;;24.70;99.90;;;;;;4915872;29;20040;-86
2022/08/22 11:10:26;;;;;;;1.92;0.30;;;24.80;99.90;;;;;;4914697;29;20063;-86
2022/08/22 11:13:28;;;;;;;1.38;0.40;;;24.40;99.90;;;;;;4915425;29;20024;-86
2022/08/22 11:16:30;;;;;;;0.82;0.40;;;24.40;99.90;;;;;;4914834;29;20028;-87
2022/08/22 11:19:21;;;;;;;0.20;0.10;;;24.20;99.90;;;;;;4910552;29;20051;-87
2022/08/22 11:21:53;;;;;;;0.82;0.20;;;24.00;99.90;;;;;;4903563;29;20039;-86
2022/08/22 11:24:37;;;;;;;6.10;0.63;;;23.70;99.90;;;;;;4914903;29;20028;-86
2022/08/22 11:27:45;;;;;;;0.57;0.30;;;23.70;99.90;;;;;;4914467;29;20394;-86
2022/08/22 11:30:16;;;;;;;0.85;0.30;;;23.60;99.90;;;;;;4915355;29;20600;-86
2022/08/22 11:33:03;;;;;;;1.02;0.17;;;23.50;99.90;;;;;;4932077;29;20409;-86
2022/08/22 11:35:38;;;;;;;1.30;0.32;;;23.50;99.90;;;;;;4931209;29;20087;-87
2022/08/22 11:38:20;;;;;;;0.63;0.30;;;23.60;99.90;;;;;;4928703;29;20036;-87
2022/08/22 11:41:14;;;;;;;2.72;0.50;;;23.80;99.90;;;;;;4926052;29;20032;-86
2022/08/22 11:44:02;;;;;;;0.68;0.25;;;23.80;99.90;;;;;;4924983;29;20043;-86
2022/08/22 11:46:42;;;;;;;3.13;0.50;;;23.80;99.90;;;;;;4918411;29;20035;-86
2022/08/22 11:49:23;;;;;;;2.00;0.45;;;23.90;99.90;;;;;;4916537;29;20040;-86
2022/08/22 11:52:08;;;;;;;0.43;0.30;;;24.10;99.90;;;;;;4914622;29;20032;-87
2022/08/22 11:55:05;;;;;;;3.22;0.43;;;24.30;99.90;;;;;;4914677;29;20032;-87
2022/08/22 11:57:42;;;;;;;2.50;0.30;;;24.40;99.90;;;;;;4902178;29;20038;-87
2022/08/22 12:00:25;;;;;;;0.55;0.20;;;24.60;99.90;;;;;;4902059;29;20099;-86
2022/08/22 12:03:28;;;;;;;1.52;0.35;;;24.60;99.90;;;;;;4915466;29;20028;-86
2022/08/22 12:06:38;;;;;;;1.67;0.22;;;24.40;99.90;;;;;;4914674;29;20146;-86
2022/08/22 12:09:19;;;;;;;0.40;0.10;;;24.40;99.90;;;;;;4878973;29;20513;-87
2022/08/22 12:12:07;;;;;;;1.10;0.20;;;24.50;99.90;;;;;;4914779;29;20020;-87
2022/08/22 12:14:56;;;;;;;0.82;0.32;;;24.90;99.90;;;;;;4869763;29;20087;-87
2022/08/22 12:17:53;;;;;;;2.33;0.30;;;24.90;99.90;;;;;;4903532;29;20032;-86
2022/08/22 12:21:00;;;;;;;1.60;0.32;;;25.00;99.90;;;;;;4914328;29;20025;-87
2022/08/22 12:23:56;;;;;;;1.38;0.40;;;25.20;99.90;;;;;;4914309;29;20037;-87
2022/08/22 12:26:27;;;;;;;1.83;0.50;;;25.10;99.90;;;;;;4886467;29;20028;-87
2022/08/22 12:29:01;;;;;;;0.70;0.30;;;25.20;99.90;;;;;;4913299;29;20092;-87
2022/08/22 12:31:36;;;;;;;0.93;0.40;;;25.20;99.90;;;;;;4914897;29;20389;-87
2022/08/22 12:34:25;;;;;;;0.95;0.30;;;25.00;99.90;;;;;;4914114;29;20035;-86
2022/08/22 12:37:15;;;;;;;2.45;0.75;;;25.20;99.90;;;;;;4914418;29;20028;-87
2022/08/22 12:40:02;;;;;;;1.02;0.30;;;25.00;99.90;;;;;;4914583;29;20028;-86
2022/08/22 12:43:08;;;;;;;4.70;0.45;;;25.00;99.90;;;;;;4914197;29;20037;-87
2022/08/22 12:45:34;;;;;;;3.75;0.50;;;25.40;99.90;;;;;;4914134;29;20036;-87
2022/08/22 12:48:18;;;;;;;1.95;0.45;;;25.50;99.90;;;;;;4879995;29;20506;-86
2022/08/22 12:51:24;;;;;;;3.53;0.40;;;25.50;99.90;;;;;;4907306;29;20039;-87
2022/08/22 12:54:17;;;;;;;1.50;0.57;;;25.80;99.90;;;;;;4892213;29;20036;-86
2022/08/22 12:56:57;;;;;;;1.42;0.80;;;26.10;99.90;;;;;;4914148;29;20024;-86
2022/08/22 12:59:39;;;;;;;1.50;0.60;;;26.40;99.90;;;;;;4914024;29;20055;-86
2022/08/22 13:02:30;;;;;;;1.27;0.40;;;26.70;99.90;;;;;;4914004;29;20024;-86
2022/08/22 13:05:23;;;;;;;4.18;0.60;;;26.90;99.90;;;;;;4915441;29;20091;-87
2022/08/22 13:07:56;;;;;;;4.50;0.50;;;27.00;99.90;;;;;;4917138;29;20103;-86
2022/08/22 13:10:34;;;;;;;1.53;0.63;;;26.70;99.90;;;;;;4893346;29;20036;-86
2022/08/22 13:13:00;;;;;;;1.98;0.75;;;26.30;99.90;;;;;;4910091;29;20029;-86
2022/08/22 13:15:35;;;;;;;2.45;0.50;;;26.40;99.90;;;;;;4915829;29;20035;-87
2022/08/22 13:18:05;;;;;;;0.95;0.47;;;26.40;99.90;;;;;;4915581;29;20113;-87
2022/08/22 13:20:38;;;;;;;2.03;0.60;;;26.20;99.90;;;;;;4898828;29;20392;-87
2022/08/22 13:23:22;;;;;;;4.07;1.02;;;26.10;99.90;;;;;;4895415;29;20036;-87
2022/08/22 13:26:18;;;;;;;3.97;0.57;;;26.00;99.90;;;;;;4904167;29;20096;-86
2022/08/22 13:28:54;;;;;;;3.08;0.65;;;26.00;99.90;;;;;;4914500;29;20131;-86
2022/08/22 13:31:36;;;;;;;2.17;0.65;;;25.90;99.90;;;;;;4915803;29;20024;-86
2022/08/22 13:34:11;;;;;;;1.90;0.73;;;25.80;99.90;;;;;;4915605;29;20084;-87
2022/08/22 13:36:49;;;;;;;4.72;0.88;;;26.10;99.90;;;;;;4915689;29;20485;-87
2022/08/22 13:39:15;;;;;;;2.95;0.60;;;26.20;99.90;;;;;;4916178;29;20028;-87
2022/08/22 13:41:51;;;;;;;1.95;0.52;;;26.30;99.90;;;;;;4915771;29;20042;-87
2022/08/22 13:44:29;;;;;;;3.05;0.65;;;26.50;99.90;;;;;;4915708;29;20048;-87
2022/08/22 13:47:03;;;;;;;2.53;0.60;;;26.70;99.90;;;;;;4915933;29;20080;-87
2022/08/22 13:49:35;;;;;;;2.65;0.57;;;26.60;99.90;;;;;;4915608;29;20031;-87
2022/08/22 13:52:25;;;;;;;1.85;0.50;;;26.90;99.90;;;;;;4915691;29;20043;-86
2022/08/22 13:55:02;;;;;;;2.72;0.57;;;26.90;99.90;;;;;;4915536;29;20032;-87
2022/08/22 13:57:38;;;;;;;2.88;0.80;;;27.40;99.90;;;;;;4915612;29;20024;-87
2022/08/22 14:00:11;;;;;;;4.60;0.60;;;27.80;99.90;;;;;;4895127;29;20047;-87
2022/08/22 14:02:47;;;;;;;2.10;0.60;;;27.60;99.90;;;;;;4908043;29;20379;-86
2022/08/22 14:05:20;;;;;;;3.33;0.80;;;27.70;99.90;;;;;;4816256;29;1806180;-87
2022/08/22 14:08:07;;;;;;;2.97;0.70;;;27.60;99.90;;;;;;4890752;29;20449;-87